Time;durP1;ratioP1;P1;durP2;ratioP2;P2;SDS_P1;SDS_P2;PMS_P1;PMS_P2;Temp;Humidity;BMP_temperature;BMP_pressure;BME280_temperature;BME280_humidity;BME280_pressure;Samples;Min_cycle;Max_cycle;Signal;HPM_P1;HPM_P2
2021/06/10 00:02:06;;;;;;;2.13;2.03;;;;;;;;;;4998088;28;20373;-61
2021/06/10 00:04:31;;;;;;;2.50;2.40;;;;;;;;;;4991564;28;20034;-61
2021/06/10 00:06:57;;;;;;;2.20;2.10;;;;;;;;;;5000015;28;20026;-62
2021/06/10 00:09:22;;;;;;;2.17;2.08;;;;;;;;;;5004690;28;20034;-61
2021/06/10 00:11:48;;;;;;;2.40;2.30;;;;;;;;;;5007758;28;20021;-61
2021/06/10 00:14:14;;;;;;;1.90;1.80;;;;;;;;;;4999124;28;20058;-61
2021/06/10 00:16:40;;;;;;;2.63;2.10;;;;;;;;;;5002039;28;20030;-61
2021/06/10 00:19:05;;;;;;;1.67;1.58;;;;;;;;;;5004880;28;20023;-61
2021/06/10 00:21:31;;;;;;;2.17;1.90;;;;;;;;;;5002506;28;20033;-61
2021/06/10 00:23:56;;;;;;;1.80;1.70;;;;;;;;;;5000789;28;20029;-61
2021/06/10 00:26:21;;;;;;;1.80;1.70;;;;;;;;;;5002056;28;20177;-62
2021/06/10 00:28:47;;;;;;;3.15;1.50;;;;;;;;;;5005146;28;20471;-61
2021/06/10 00:31:12;;;;;;;1.90;1.70;;;;;;;;;;4999946;28;20021;-61
2021/06/10 00:33:38;;;;;;;1.70;1.60;;;;;;;;;;5004011;28;20041;-61
2021/06/10 00:36:04;;;;;;;1.45;1.40;;;;;;;;;;5006227;28;20037;-61
2021/06/10 00:38:29;;;;;;;1.27;1.17;;;;;;;;;;5008960;28;20025;-61
2021/06/10 00:40:54;;;;;;;1.60;1.50;;;;;;;;;;5008048;28;20101;-61
2021/06/10 00:43:20;;;;;;;1.80;1.70;;;;;;;;;;5004153;28;20081;-61
2021/06/10 00:45:45;;;;;;;1.30;1.30;;;;;;;;;;5001475;28;20030;-61
2021/06/10 00:48:11;;;;;;;2.13;1.70;;;;;;;;;;5004109;28;20033;-61
2021/06/10 00:50:42;;;;;;;1.67;1.58;;;;;;;;;;5000927;28;20028;-61
2021/06/10 00:53:09;;;;;;;1.70;1.60;;;;;;;;;;5001325;28;20578;-61
2021/06/10 00:55:36;;;;;;;1.60;1.50;;;;;;;;;;5004500;28;20038;-61
2021/06/10 00:58:02;;;;;;;1.58;1.48;;;;;;;;;;5000215;28;20080;-61
2021/06/10 01:00:27;;;;;;;1.58;1.48;;;;;;;;;;4997740;28;20495;-61
2021/06/10 01:02:53;;;;;;;1.73;1.63;;;;;;;;;;5010607;28;20060;-61
2021/06/10 01:05:20;;;;;;;1.60;1.50;;;;;;;;;;5001448;28;20399;-61
2021/06/10 01:08:02;;;;;;;1.90;1.75;;;;;;;;;;5004916;28;20033;-61
2021/06/10 01:10:46;;;;;;;1.50;1.50;;;;;;;;;;5001597;28;20437;-61
2021/06/10 01:13:18;;;;;;;1.65;1.55;;;;;;;;;;5006908;28;20121;-61
2021/06/10 01:15:46;;;;;;;1.67;1.58;;;;;;;;;;5001928;28;20117;-62
2021/06/10 01:18:14;;;;;;;1.85;1.75;;;;;;;;;;4996094;28;20026;-61
2021/06/10 01:20:43;;;;;;;1.60;1.52;;;;;;;;;;5007726;28;20041;-61
2021/06/10 01:23:14;;;;;;;1.90;1.80;;;;;;;;;;5004493;28;20557;-61
2021/06/10 01:25:45;;;;;;;1.60;1.50;;;;;;;;;;5003113;28;20026;-61
2021/06/10 01:28:25;;;;;;;1.95;1.85;;;;;;;;;;5005847;28;20041;-61
2021/06/10 01:30:55;;;;;;;1.80;1.70;;;;;;;;;;5002808;28;20117;-61
2021/06/10 01:33:22;;;;;;;;;;;;;;;;;;5006769;28;20112;-61
2021/06/10 01:35:52;;;;;;;2.00;1.90;;;;;;;;;;5002128;28;20528;-61
2021/06/10 01:38:19;;;;;;;1.88;1.77;;;;;;;;;;4995646;28;20547;-61
2021/06/10 01:40:46;;;;;;;1.90;1.80;;;;;;;;;;4997162;28;20103;-61
2021/06/10 01:43:13;;;;;;;2.13;2.00;;;;;;;;;;5004851;28;20029;-61
2021/06/10 01:45:39;;;;;;;1.85;1.75;;;;;;;;;;5001722;28;20399;-61
2021/06/10 01:48:05;;;;;;;2.03;1.92;;;;;;;;;;4999504;28;20018;-61
2021/06/10 01:50:31;;;;;;;1.95;1.85;;;;;;;;;;4999366;28;20029;-61
2021/06/10 01:52:57;;;;;;;1.77;1.70;;;;;;;;;;5005042;28;20041;-61
2021/06/10 01:55:30;;;;;;;1.65;1.55;;;;;;;;;;5001650;28;20030;-61
2021/06/10 01:57:58;;;;;;;1.80;1.70;;;;;;;;;;4996572;28;20041;-61
2021/06/10 02:00:24;;;;;;;2.00;1.90;;;;;;;;;;5001106;28;20033;-62
2021/06/10 02:02:52;;;;;;;1.73;1.63;;;;;;;;;;5003536;28;20048;-61
2021/06/10 02:05:20;;;;;;;1.80;1.70;;;;;;;;;;5004012;28;20034;-61
2021/06/10 02:07:45;;;;;;;1.80;1.70;;;;;;;;;;4998817;28;20052;-61
2021/06/10 02:10:14;;;;;;;1.70;1.60;;;;;;;;;;5003825;28;20042;-61
2021/06/10 02:12:45;;;;;;;1.80;1.70;;;;;;;;;;5001837;28;20084;-61
2021/06/10 02:15:11;;;;;;;1.58;1.58;;;;;;;;;;4996998;28;20838;-61
2021/06/10 02:17:37;;;;;;;1.58;1.58;;;;;;;;;;4999999;28;20033;-61
2021/06/10 02:20:06;;;;;;;1.88;1.77;;;;;;;;;;4998747;28;20030;-61
2021/06/10 02:22:33;;;;;;;1.75;1.65;;;;;;;;;;4998886;28;20116;-61
2021/06/10 02:24:59;;;;;;;1.85;1.75;;;;;;;;;;5002587;28;20026;-61
2021/06/10 02:27:25;;;;;;;1.77;1.67;;;;;;;;;;4999116;28;20334;-60
2021/06/10 02:29:50;;;;;;;1.90;1.80;;;;;;;;;;4996663;28;20068;-61
2021/06/10 02:32:16;;;;;;;1.88;1.70;;;;;;;;;;5001888;28;20056;-60
2021/06/10 02:34:41;;;;;;;1.88;1.77;;;;;;;;;;5000430;28;20633;-61
2021/06/10 02:37:09;;;;;;;1.90;1.80;;;;;;;;;;5000537;28;20475;-60
2021/06/10 02:39:40;;;;;;;1.77;1.67;;;;;;;;;;5013898;28;20409;-61
2021/06/10 02:42:07;;;;;;;1.90;1.80;;;;;;;;;;4998759;28;20022;-61
2021/06/10 02:44:33;;;;;;;1.65;1.55;;;;;;;;;;5009884;28;20442;-61
2021/06/10 02:47:03;;;;;;;1.85;1.75;;;;;;;;;;4996466;28;20108;-61
2021/06/10 02:49:30;;;;;;;1.90;1.80;;;;;;;;;;4999816;28;20026;-61
2021/06/10 02:51:56;;;;;;;1.67;1.58;;;;;;;;;;4996802;28;20098;-61
2021/06/10 02:54:22;;;;;;;1.92;1.83;;;;;;;;;;4993971;28;20033;-62
2021/06/10 02:56:49;;;;;;;1.50;1.45;;;;;;;;;;4999088;28;20101;-61
2021/06/10 02:59:18;;;;;;;1.77;1.67;;;;;;;;;;5000943;28;20121;-61
2021/06/10 03:01:44;;;;;;;1.88;1.77;;;;;;;;;;5019443;28;20033;-61
2021/06/10 03:04:13;;;;;;;1.67;1.58;;;;;;;;;;4999644;28;20068;-61
2021/06/10 03:06:40;;;;;;;1.75;1.65;;;;;;;;;;5000771;28;20029;-61
2021/06/10 03:09:06;;;;;;;1.98;1.88;;;;;;;;;;4997997;28;20025;-61
2021/06/10 03:11:32;;;;;;;1.80;1.70;;;;;;;;;;4998483;28;20030;-61
2021/06/10 03:13:59;;;;;;;1.70;1.60;;;;;;;;;;4999053;28;20026;-61
2021/06/10 03:16:25;;;;;;;1.98;1.88;;;;;;;;;;5003860;28;20038;-61
2021/06/10 03:18:52;;;;;;;1.70;1.60;;;;;;;;;;5007061;28;20578;-62
2021/06/10 03:21:19;;;;;;;1.90;1.80;;;;;;;;;;5001726;28;20405;-61
2021/06/10 03:23:44;;;;;;;2.00;1.90;;;;;;;;;;4999988;28;20401;-62
2021/06/10 03:26:10;;;;;;;2.10;2.00;;;;;;;;;;5000738;28;20145;-61
2021/06/10 03:28:37;;;;;;;1.90;1.80;;;;;;;;;;5001672;28;20137;-62
2021/06/10 03:31:03;;;;;;;1.88;1.77;;;;;;;;;;5002984;28;20368;-61
2021/06/10 03:33:29;;;;;;;1.75;1.65;;;;;;;;;;4999098;28;20045;-62
2021/06/10 03:35:55;;;;;;;1.90;1.80;;;;;;;;;;5000353;28;20439;-62
2021/06/10 03:38:23;;;;;;;1.88;1.77;;;;;;;;;;4999221;28;20022;-62
2021/06/10 03:40:49;;;;;;;1.98;1.88;;;;;;;;;;4996612;28;20026;-62
2021/06/10 03:43:16;;;;;;;2.00;1.80;;;;;;;;;;5003426;28;20034;-61
2021/06/10 03:45:43;;;;;;;1.75;1.65;;;;;;;;;;5000973;28;20034;-62
2021/06/10 03:48:10;;;;;;;1.83;1.73;;;;;;;;;;5009034;28;20073;-62
2021/06/10 03:50:37;;;;;;;1.73;1.63;;;;;;;;;;5006199;28;20419;-62
2021/06/10 03:53:06;;;;;;;1.80;1.70;;;;;;;;;;5000571;28;20030;-61
2021/06/10 03:55:31;;;;;;;2.00;1.90;;;;;;;;;;5007950;28;20029;-62
2021/06/10 03:57:57;;;;;;;1.75;1.65;;;;;;;;;;5009466;28;20034;-61
2021/06/10 04:00:22;;;;;;;2.33;2.03;;;;;;;;;;5002086;28;20034;-61
2021/06/10 04:02:48;;;;;;;1.60;1.50;;;;;;;;;;5007569;28;20037;-62
2021/06/10 04:05:13;;;;;;;1.73;1.63;;;;;;;;;;5000954;28;20109;-61
2021/06/10 04:07:39;;;;;;;1.92;1.83;;;;;;;;;;5006727;28;20033;-62
2021/06/10 04:10:06;;;;;;;2.00;1.90;;;;;;;;;;5001908;28;20034;-62
2021/06/10 04:12:31;;;;;;;1.85;1.75;;;;;;;;;;5004981;28;20038;-62
2021/06/10 04:14:57;;;;;;;1.95;1.85;;;;;;;;;;5000960;28;20026;-61
2021/06/10 04:17:22;;;;;;;1.77;1.67;;;;;;;;;;5009529;28;20062;-61
2021/06/10 04:19:48;;;;;;;1.98;1.88;;;;;;;;;;5004181;28;20030;-62
2021/06/10 04:22:13;;;;;;;2.08;1.98;;;;;;;;;;5000853;28;20084;-61
2021/06/10 04:24:39;;;;;;;2.00;1.90;;;;;;;;;;5000967;28;20021;-62
2021/06/10 04:27:06;;;;;;;1.90;1.80;;;;;;;;;;5008975;28;20034;-62
2021/06/10 04:29:32;;;;;;;2.08;1.98;;;;;;;;;;5005339;28;20038;-61
2021/06/10 04:31:57;;;;;;;2.60;2.50;;;;;;;;;;5003776;28;20132;-61
2021/06/10 04:34:23;;;;;;;2.53;2.33;;;;;;;;;;4998401;28;20344;-62
2021/06/10 04:36:48;;;;;;;2.03;1.92;;;;;;;;;;5003527;28;20468;-61
2021/06/10 04:39:14;;;;;;;2.28;2.17;;;;;;;;;;4998587;28;20085;-61
2021/06/10 04:41:39;;;;;;;2.10;2.00;;;;;;;;;;5006025;28;20029;-61
2021/06/10 04:44:05;;;;;;;2.40;2.20;;;;;;;;;;4998809;28;20124;-61
2021/06/10 04:46:32;;;;;;;2.05;1.95;;;;;;;;;;5000415;28;20042;-61
2021/06/10 04:48:59;;;;;;;1.98;1.88;;;;;;;;;;5004348;28;20290;-61
2021/06/10 04:51:25;;;;;;;2.30;2.20;;;;;;;;;;5002582;28;20033;-61
2021/06/10 04:53:53;;;;;;;1.95;1.85;;;;;;;;;;4999964;28;20030;-61
2021/06/10 04:56:22;;;;;;;2.00;1.90;;;;;;;;;;5003231;28;20030;-62
2021/06/10 04:58:47;;;;;;;2.40;2.30;;;;;;;;;;5002286;28;20053;-61
2021/06/10 05:01:13;;;;;;;2.40;2.30;;;;;;;;;;5003327;28;20042;-61
2021/06/10 05:03:38;;;;;;;2.58;2.47;;;;;;;;;;4998903;28;20030;-61
2021/06/10 05:06:04;;;;;;;2.97;2.78;;;;;;;;;;5002635;28;20510;-62
2021/06/10 05:08:29;;;;;;;2.60;2.50;;;;;;;;;;5000862;28;20033;-60
2021/06/10 05:10:55;;;;;;;2.42;2.22;;;;;;;;;;5002540;28;20030;-61
2021/06/10 05:13:20;;;;;;;3.03;2.92;;;;;;;;;;5018044;28;20030;-60
2021/06/10 05:15:45;;;;;;;2.90;2.70;;;;;;;;;;5009168;28;20037;-60
2021/06/10 05:18:11;;;;;;;2.80;2.60;;;;;;;;;;5010217;28;20022;-60
2021/06/10 05:20:36;;;;;;;2.63;2.53;;;;;;;;;;5004094;28;20083;-61
2021/06/10 05:23:02;;;;;;;2.70;2.60;;;;;;;;;;5001248;28;20113;-60
2021/06/10 05:25:28;;;;;;;2.25;2.15;;;;;;;;;;5000582;28;20072;-60
2021/06/10 05:27:53;;;;;;;3.03;2.75;;;;;;;;;;5005799;28;20073;-60
2021/06/10 05:30:19;;;;;;;3.10;2.90;;;;;;;;;;5002022;28;20022;-60
2021/06/10 05:32:45;;;;;;;3.08;2.92;;;;;;;;;;5007282;28;20442;-60
2021/06/10 05:35:11;;;;;;;3.30;3.10;;;;;;;;;;5001342;28;20029;-60
2021/06/10 05:37:36;;;;;;;2.72;2.53;;;;;;;;;;5007335;28;20030;-60
2021/06/10 05:40:04;;;;;;;3.22;3.00;;;;;;;;;;5002775;28;20021;-60
2021/06/10 05:42:29;;;;;;;3.00;2.80;;;;;;;;;;5004752;28;20567;-60
2021/06/10 05:44:55;;;;;;;3.05;2.95;;;;;;;;;;5001100;28;20234;-60
2021/06/10 05:47:20;;;;;;;2.40;2.30;;;;;;;;;;5001370;28;20057;-59
2021/06/10 05:49:46;;;;;;;2.30;2.15;;;;;;;;;;5000887;28;20022;-59
2021/06/10 05:52:11;;;;;;;2.85;2.60;;;;;;;;;;5003948;28;20033;-61
2021/06/10 05:54:37;;;;;;;3.03;2.90;;;;;;;;;;5005815;28;20481;-61
2021/06/10 05:57:03;;;;;;;2.53;2.42;;;;;;;;;;5007572;28;20022;-60
2021/06/10 05:59:28;;;;;;;2.83;2.63;;;;;;;;;;5001428;28;20034;-60
2021/06/10 06:01:54;;;;;;;3.00;2.78;;;;;;;;;;5000846;28;20030;-61
2021/06/10 06:04:19;;;;;;;2.67;2.58;;;;;;;;;;5018585;28;20140;-61
2021/06/10 06:06:45;;;;;;;2.55;2.30;;;;;;;;;;4999801;28;20504;-61
2021/06/10 06:09:11;;;;;;;2.90;2.75;;;;;;;;;;5003689;28;20133;-61
2021/06/10 06:11:36;;;;;;;2.92;2.83;;;;;;;;;;5000468;28;20133;-61
2021/06/10 06:14:07;;;;;;;3.55;3.10;;;;;;;;;;5000282;28;20038;-61
2021/06/10 06:16:34;;;;;;;2.95;2.80;;;;;;;;;;4998183;28;20048;-60
2021/06/10 06:19:01;;;;;;;2.80;2.70;;;;;;;;;;4997859;28;20026;-60
2021/06/10 06:21:27;;;;;;;3.00;2.80;;;;;;;;;;4998767;28;21341;-60
2021/06/10 06:23:52;;;;;;;3.00;2.83;;;;;;;;;;5003643;28;20423;-60
2021/06/10 06:26:20;;;;;;;3.30;3.10;;;;;;;;;;5000618;28;20480;-60
2021/06/10 06:28:45;;;;;;;3.47;3.22;;;;;;;;;;5005305;28;20089;-60
2021/06/10 06:31:11;;;;;;;3.00;2.80;;;;;;;;;;4996187;28;20089;-60
2021/06/10 06:33:37;;;;;;;3.00;2.80;;;;;;;;;;5005000;28;20025;-61
2021/06/10 06:36:03;;;;;;;3.08;2.88;;;;;;;;;;4996824;28;20032;-62
2021/06/10 06:38:28;;;;;;;2.88;2.78;;;;;;;;;;4998342;28;20109;-61
2021/06/10 06:40:54;;;;;;;2.85;2.75;;;;;;;;;;4998762;28;20117;-61
2021/06/10 06:43:19;;;;;;;2.30;2.20;;;;;;;;;;5001759;28;20025;-61
2021/06/10 06:45:45;;;;;;;2.75;2.60;;;;;;;;;;5002374;28;20029;-61
2021/06/10 06:48:13;;;;;;;3.10;2.90;;;;;;;;;;4999313;28;20046;-61
2021/06/10 06:50:39;;;;;;;3.00;2.80;;;;;;;;;;4997371;28;20056;-61
2021/06/10 06:53:04;;;;;;;2.92;2.83;;;;;;;;;;5004140;28;20038;-61
2021/06/10 06:55:30;;;;;;;3.10;3.00;;;;;;;;;;4999901;28;20025;-61
2021/06/10 06:57:56;;;;;;;2.80;2.70;;;;;;;;;;5006706;28;20045;-60
2021/06/10 07:00:23;;;;;;;3.35;3.15;;;;;;;;;;4997991;28;20060;-61
2021/06/10 07:02:49;;;;;;;3.00;2.80;;;;;;;;;;5002648;28;20053;-62
2021/06/10 07:05:15;;;;;;;3.30;3.00;;;;;;;;;;4997996;28;20093;-61
2021/06/10 07:07:41;;;;;;;2.95;2.70;;;;;;;;;;4994545;28;20030;-61
2021/06/10 07:10:07;;;;;;;2.83;2.65;;;;;;;;;;4999776;28;20358;-61
2021/06/10 07:12:33;;;;;;;3.10;2.90;;;;;;;;;;5001051;28;20033;-61
2021/06/10 07:14:59;;;;;;;2.80;2.60;;;;;;;;;;5002343;28;20029;-62
2021/06/10 07:17:24;;;;;;;2.90;2.80;;;;;;;;;;5003819;28;20025;-62
2021/06/10 07:19:52;;;;;;;2.60;2.50;;;;;;;;;;5006355;28;20470;-61
2021/06/10 07:22:18;;;;;;;2.75;2.65;;;;;;;;;;5003817;28;20072;-61
2021/06/10 07:24:46;;;;;;;2.40;2.30;;;;;;;;;;5003525;28;20076;-61
2021/06/10 07:27:12;;;;;;;2.35;2.25;;;;;;;;;;5000163;28;20099;-61
2021/06/10 07:29:38;;;;;;;2.58;2.25;;;;;;;;;;5000995;28;20097;-61
2021/06/10 07:32:04;;;;;;;2.70;2.60;;;;;;;;;;4998826;28;20109;-62
2021/06/10 07:34:29;;;;;;;2.45;2.25;;;;;;;;;;5001651;28;20272;-61
2021/06/10 07:36:55;;;;;;;2.70;2.60;;;;;;;;;;5004769;28;20038;-62
2021/06/10 07:39:20;;;;;;;2.30;2.20;;;;;;;;;;4996014;28;20037;-61
2021/06/10 07:41:46;;;;;;;2.80;2.60;;;;;;;;;;5001762;28;20029;-62
2021/06/10 07:44:11;;;;;;;2.80;2.60;;;;;;;;;;4993240;28;20144;-61
2021/06/10 07:46:36;;;;;;;2.50;2.40;;;;;;;;;;4998701;28;20030;-61
2021/06/10 07:49:03;;;;;;;2.30;2.20;;;;;;;;;;4998620;28;20084;-61
2021/06/10 07:51:28;;;;;;;2.45;2.35;;;;;;;;;;5002745;28;20164;-61
2021/06/10 07:53:54;;;;;;;2.25;2.15;;;;;;;;;;5002863;28;20117;-61
2021/06/10 07:56:19;;;;;;;2.88;2.60;;;;;;;;;;5002023;28;20081;-61
2021/06/10 07:58:44;;;;;;;2.70;2.60;;;;;;;;;;4993956;28;20021;-61
2021/06/10 08:01:10;;;;;;;2.40;2.30;;;;;;;;;;4999481;28;20162;-61
2021/06/10 08:03:36;;;;;;;2.58;2.38;;;;;;;;;;4994831;28;20501;-61
2021/06/10 08:06:01;;;;;;;2.28;2.17;;;;;;;;;;5012149;28;20033;-62
2021/06/10 08:08:27;;;;;;;2.25;2.15;;;;;;;;;;5004730;28;20112;-61
2021/06/10 08:10:53;;;;;;;2.80;2.60;;;;;;;;;;5000958;28;20424;-61
2021/06/10 08:13:21;;;;;;;2.40;2.20;;;;;;;;;;5002540;28;20034;-61
2021/06/10 08:15:50;;;;;;;2.10;2.00;;;;;;;;;;5002097;28;21116;-61
2021/06/10 08:18:16;;;;;;;2.10;2.00;;;;;;;;;;4999449;28;20107;-61
2021/06/10 08:20:41;;;;;;;2.25;2.15;;;;;;;;;;4996415;28;20074;-61
2021/06/10 08:23:07;;;;;;;2.10;2.00;;;;;;;;;;5001430;28;20510;-62
2021/06/10 08:25:34;;;;;;;2.03;1.92;;;;;;;;;;4997895;28;20026;-61
2021/06/10 08:28:02;;;;;;;1.92;1.83;;;;;;;;;;5002783;28;20080;-61
2021/06/10 08:30:28;;;;;;;2.20;2.10;;;;;;;;;;5005479;28;20542;-61
2021/06/10 08:32:54;;;;;;;1.60;1.50;;;;;;;;;;5002132;28;20033;-61
2021/06/10 08:35:20;;;;;;;1.40;1.40;;;;;;;;;;5002463;28;20042;-61
2021/06/10 08:37:46;;;;;;;1.70;1.60;;;;;;;;;;4998761;28;20021;-61
2021/06/10 08:40:13;;;;;;;1.70;1.60;;;;;;;;;;5004253;28;20530;-62
2021/06/10 08:42:41;;;;;;;1.48;1.38;;;;;;;;;;5002600;28;20059;-61
2021/06/10 08:45:11;;;;;;;1.55;1.50;;;;;;;;;;4999864;28;20027;-62
2021/06/10 08:47:42;;;;;;;1.73;1.63;;;;;;;;;;5000898;28;20027;-61
2021/06/10 08:50:11;;;;;;;1.60;1.60;;;;;;;;;;5002470;28;20034;-61
2021/06/10 08:52:37;;;;;;;;;;;;;;;;;;5002870;28;20065;-62
2021/06/10 08:55:03;;;;;;;1.98;1.88;;;;;;;;;;5001612;28;19918;-62
2021/06/10 08:57:29;;;;;;;1.83;1.73;;;;;;;;;;4997685;28;20066;-61
2021/06/10 08:59:54;;;;;;;1.75;1.65;;;;;;;;;;5001475;28;20021;-62
2021/06/10 09:02:20;;;;;;;1.70;1.60;;;;;;;;;;5003347;28;20084;-62
2021/06/10 09:04:46;;;;;;;1.50;1.40;;;;;;;;;;5004102;28;20026;-62
2021/06/10 09:07:11;;;;;;;1.73;1.65;;;;;;;;;;5005256;28;20026;-62
2021/06/10 09:09:41;;;;;;;1.45;1.45;;;;;;;;;;5006180;28;20029;-62
2021/06/10 09:12:09;;;;;;;1.52;1.42;;;;;;;;;;4999715;28;20022;-62
2021/06/10 09:14:57;;;;;;;1.50;1.40;;;;;;;;;;4998957;28;20084;-62
2021/06/10 09:17:37;;;;;;;1.92;1.75;;;;;;;;;;5004279;28;20057;-62
2021/06/10 09:20:22;;;;;;;1.40;1.40;;;;;;;;;;5008984;28;20550;-62
2021/06/10 09:22:51;;;;;;;1.40;1.40;;;;;;;;;;5002946;28;20062;-62
2021/06/10 09:25:19;;;;;;;1.60;1.50;;;;;;;;;;5005093;28;20034;-62
2021/06/10 09:28:00;;;;;;;1.23;1.23;;;;;;;;;;5005602;28;20049;-62
2021/06/10 09:30:50;;;;;;;1.30;1.30;;;;;;;;;;5005002;28;20045;-63
2021/06/10 09:33:19;;;;;;;1.50;1.40;;;;;;;;;;4998566;28;20030;-63
2021/06/10 09:35:45;;;;;;;1.48;1.38;;;;;;;;;;5006730;28;20037;-63
2021/06/10 09:38:21;;;;;;;1.20;1.20;;;;;;;;;;5000633;28;20038;-63
2021/06/10 09:40:51;;;;;;;1.40;1.30;;;;;;;;;;5002889;28;20096;-63
2021/06/10 09:43:18;;;;;;;1.05;1.05;;;;;;;;;;5001043;28;20036;-63
2021/06/10 09:45:52;;;;;;;1.20;1.20;;;;;;;;;;5003668;28;20492;-63
2021/06/10 09:48:29;;;;;;;1.35;1.25;;;;;;;;;;5006209;28;20404;-63
2021/06/10 09:50:55;;;;;;;1.13;1.13;;;;;;;;;;5016753;28;20034;-63
2021/06/10 09:53:23;;;;;;;1.42;1.27;;;;;;;;;;5002190;28;20436;-63
2021/06/10 09:55:58;;;;;;;1.10;1.10;;;;;;;;;;5004922;28;20053;-63
2021/06/10 09:58:34;;;;;;;1.30;1.00;;;;;;;;;;4996439;28;20034;-63
2021/06/10 10:01:02;;;;;;;1.20;1.20;;;;;;;;;;5002931;28;20490;-63
2021/06/10 10:03:30;;;;;;;1.00;0.90;;;;;;;;;;4998297;28;20033;-63
2021/06/10 10:06:03;;;;;;;1.10;1.10;;;;;;;;;;4998752;28;20059;-63
2021/06/10 10:08:30;;;;;;;1.10;1.10;;;;;;;;;;5004292;28;20097;-63
2021/06/10 10:11:03;;;;;;;0.90;0.90;;;;;;;;;;5001963;28;20034;-61
2021/06/10 10:13:31;;;;;;;0.90;0.90;;;;;;;;;;5000782;28;20523;-63
2021/06/10 10:16:03;;;;;;;1.67;1.08;;;;;;;;;;4996946;28;20117;-63
2021/06/10 10:18:29;;;;;;;0.85;0.85;;;;;;;;;;5005156;28;20026;-63
2021/06/10 10:20:59;;;;;;;0.73;0.73;;;;;;;;;;5001721;28;20041;-63
2021/06/10 10:23:24;;;;;;;0.85;0.85;;;;;;;;;;5002133;28;20026;-63
2021/06/10 10:25:55;;;;;;;0.85;0.85;;;;;;;;;;5000965;28;20033;-63
2021/06/10 10:28:21;;;;;;;0.85;0.85;;;;;;;;;;4996309;28;20026;-63
2021/06/10 10:30:47;;;;;;;0.75;0.75;;;;;;;;;;5000693;28;20022;-63
2021/06/10 10:33:24;;;;;;;1.00;1.00;;;;;;;;;;5006590;28;20030;-62
2021/06/10 10:35:53;;;;;;;0.80;0.80;;;;;;;;;;5005389;28;20022;-62
2021/06/10 10:38:28;;;;;;;0.85;0.85;;;;;;;;;;4998207;28;20038;-63
2021/06/10 10:40:59;;;;;;;0.70;0.70;;;;;;;;;;5001159;28;20559;-63
2021/06/10 10:43:26;;;;;;;0.88;0.73;;;;;;;;;;5001180;28;20479;-62
2021/06/10 10:46:06;;;;;;;0.77;0.77;;;;;;;;;;5002153;28;20026;-63
2021/06/10 10:48:33;;;;;;;0.80;0.80;;;;;;;;;;5002933;28;20476;-62
2021/06/10 10:50:59;;;;;;;1.00;1.00;;;;;;;;;;4999077;28;20026;-63
2021/06/10 10:53:30;;;;;;;0.82;0.82;;;;;;;;;;5004011;28;20052;-63
2021/06/10 10:56:10;;;;;;;0.90;0.90;;;;;;;;;;5015200;28;20092;-63
2021/06/10 10:58:36;;;;;;;0.80;0.80;;;;;;;;;;4997841;28;20026;-63
2021/06/10 11:01:02;;;;;;;3.42;0.95;;;;;;;;;;4995908;28;20056;-63
2021/06/10 11:03:29;;;;;;;1.20;1.10;;;;;;;;;;5002009;28;20121;-63
2021/06/10 11:05:56;;;;;;;0.80;0.80;;;;;;;;;;5002638;28;20038;-64
2021/06/10 11:08:23;;;;;;;0.80;0.80;;;;;;;;;;4999479;28;20125;-63
2021/06/10 11:10:53;;;;;;;0.80;0.80;;;;;;;;;;5000785;28;20080;-64
2021/06/10 11:13:23;;;;;;;0.82;0.82;;;;;;;;;;4993046;28;20026;-62
2021/06/10 11:15:51;;;;;;;0.80;0.80;;;;;;;;;;5001956;28;20025;-63
2021/06/10 11:18:38;;;;;;;0.88;0.88;;;;;;;;;;4996437;28;20527;-63
2021/06/10 11:21:04;;;;;;;1.00;0.88;;;;;;;;;;4995265;28;20121;-63
2021/06/10 11:23:29;;;;;;;0.80;0.80;;;;;;;;;;5005633;28;20520;-63
2021/06/10 11:25:57;;;;;;;1.15;0.70;;;;;;;;;;4996334;28;20038;-63
2021/06/10 11:28:25;;;;;;;0.73;0.73;;;;;;;;;;4999066;28;20103;-64
2021/06/10 11:30:54;;;;;;;0.80;0.80;;;;;;;;;;5001972;28;20041;-63
2021/06/10 11:33:19;;;;;;;0.80;0.80;;;;;;;;;;4997052;28;20508;-63
2021/06/10 11:35:46;;;;;;;0.70;0.70;;;;;;;;;;4998061;28;20073;-63
2021/06/10 11:38:21;;;;;;;0.90;0.90;;;;;;;;;;5012951;28;20035;-63
2021/06/10 11:41:00;;;;;;;0.60;0.60;;;;;;;;;;4997419;28;20050;-63
2021/06/10 11:43:26;;;;;;;0.80;0.70;;;;;;;;;;4999398;28;20033;-63
2021/06/10 11:46:14;;;;;;;0.63;0.63;;;;;;;;;;5001579;28;20434;-63
2021/06/10 11:48:55;;;;;;;0.60;0.60;;;;;;;;;;4999545;28;20053;-63
2021/06/10 11:51:24;;;;;;;0.50;0.50;;;;;;;;;;5004887;28;20129;-63
2021/06/10 11:53:52;;;;;;;0.55;0.55;;;;;;;;;;5002333;28;20453;-63
2021/06/10 11:56:25;;;;;;;2.10;0.80;;;;;;;;;;4996281;28;20038;-64
2021/06/10 11:58:53;;;;;;;0.50;0.50;;;;;;;;;;4996853;28;20027;-63
2021/06/10 12:01:18;;;;;;;0.75;0.50;;;;;;;;;;5001879;28;20084;-63
2021/06/10 12:03:45;;;;;;;0.47;0.47;;;;;;;;;;5005311;28;20391;-64
2021/06/10 12:06:13;;;;;;;0.57;0.50;;;;;;;;;;5003094;28;20034;-64
2021/06/10 12:08:41;;;;;;;0.60;0.60;;;;;;;;;;5002529;28;20027;-64
2021/06/10 12:11:09;;;;;;;0.77;0.60;;;;;;;;;;5006517;28;20091;-64
2021/06/10 12:13:39;;;;;;;0.50;0.50;;;;;;;;;;4999813;28;20033;-65
2021/06/10 12:16:07;;;;;;;0.50;0.50;;;;;;;;;;5004518;28;20053;-63
2021/06/10 12:18:35;;;;;;;0.50;0.50;;;;;;;;;;5000122;28;20026;-63
2021/06/10 12:21:03;;;;;;;0.40;0.40;;;;;;;;;;5005406;28;20503;-63
2021/06/10 12:23:37;;;;;;;0.50;0.50;;;;;;;;;;5004641;28;20472;-63
2021/06/10 12:26:07;;;;;;;0.60;0.60;;;;;;;;;;5000732;28;20151;-63
2021/06/10 12:28:48;;;;;;;0.82;0.50;;;;;;;;;;5004070;28;20509;-63
2021/06/10 12:31:21;;;;;;;0.57;0.57;;;;;;;;;;5001804;28;20046;-63
2021/06/10 12:33:54;;;;;;;0.50;0.50;;;;;;;;;;4995690;28;20031;-63
2021/06/10 12:36:25;;;;;;;0.50;0.50;;;;;;;;;;5004645;28;20127;-63
2021/06/10 12:38:56;;;;;;;0.60;0.60;;;;;;;;;;5001142;28;20439;-63
2021/06/10 12:41:23;;;;;;;0.40;0.40;;;;;;;;;;4998807;28;20037;-63
2021/06/10 12:43:51;;;;;;;0.50;0.50;;;;;;;;;;5002906;28;20337;-63
2021/06/10 12:46:17;;;;;;;0.50;0.50;;;;;;;;;;5005649;28;20124;-64
2021/06/10 12:48:43;;;;;;;0.40;0.40;;;;;;;;;;5005185;28;20112;-64
2021/06/10 12:51:18;;;;;;;0.50;0.50;;;;;;;;;;4997229;28;20039;-65
2021/06/10 12:54:04;;;;;;;0.98;0.60;;;;;;;;;;5001622;28;20140;-64
2021/06/10 12:56:35;;;;;;;0.50;0.50;;;;;;;;;;5005485;28;20034;-64
2021/06/10 12:59:02;;;;;;;0.52;0.52;;;;;;;;;;5006918;28;20021;-65
2021/06/10 13:01:27;;;;;;;0.60;0.60;;;;;;;;;;4999033;28;20021;-64
2021/06/10 13:03:53;;;;;;;0.70;0.60;;;;;;;;;;4999668;28;20121;-64
2021/06/10 13:06:23;;;;;;;0.40;0.40;;;;;;;;;;5007538;28;20754;-65
2021/06/10 13:08:48;;;;;;;0.52;0.52;;;;;;;;;;4998295;28;20085;-64
2021/06/10 13:11:15;;;;;;;0.40;0.40;;;;;;;;;;5021016;28;20033;-64
2021/06/10 13:13:41;;;;;;;0.60;0.60;;;;;;;;;;5003542;28;20037;-65
2021/06/10 13:16:07;;;;;;;0.73;0.73;;;;;;;;;;5016703;28;20022;-64
2021/06/10 13:18:34;;;;;;;0.60;0.60;;;;;;;;;;4998332;28;20503;-64
2021/06/10 13:21:20;;;;;;;0.82;0.77;;;;;;;;;;4999397;28;20077;-64
2021/06/10 13:23:49;;;;;;;0.70;0.70;;;;;;;;;;5002191;28;20022;-64
2021/06/10 13:26:26;;;;;;;0.70;0.70;;;;;;;;;;5001257;28;20034;-64
2021/06/10 13:28:54;;;;;;;0.60;0.60;;;;;;;;;;5003290;28;20049;-64
2021/06/10 13:31:24;;;;;;;0.88;0.82;;;;;;;;;;5001477;28;20583;-64
2021/06/10 13:33:52;;;;;;;0.70;0.70;;;;;;;;;;5003563;28;20125;-64
2021/06/10 13:36:31;;;;;;;0.85;0.80;;;;;;;;;;4998908;28;20038;-64
2021/06/10 13:39:02;;;;;;;0.82;0.82;;;;;;;;;;4999505;28;20030;-64
2021/06/10 13:41:30;;;;;;;0.70;0.70;;;;;;;;;;5001736;28;20034;-64
2021/06/10 13:43:56;;;;;;;0.73;0.73;;;;;;;;;;5007443;28;20040;-64
2021/06/10 13:46:22;;;;;;;1.02;0.93;;;;;;;;;;5001766;28;20388;-63
2021/06/10 13:48:48;;;;;;;1.40;0.90;;;;;;;;;;5007365;28;20044;-64
2021/06/10 13:51:15;;;;;;;0.90;0.90;;;;;;;;;;4999582;28;20041;-64
2021/06/10 13:53:46;;;;;;;0.80;0.80;;;;;;;;;;5001992;28;20063;-64
2021/06/10 13:56:14;;;;;;;0.80;0.80;;;;;;;;;;5011728;28;20055;-63
2021/06/10 13:58:39;;;;;;;0.90;0.90;;;;;;;;;;4999391;28;20026;-64
2021/06/10 14:01:05;;;;;;;1.00;1.00;;;;;;;;;;5002837;28;20045;-64
2021/06/10 14:03:31;;;;;;;0.88;0.88;;;;;;;;;;5000059;28;20030;-64
2021/06/10 14:05:56;;;;;;;1.73;0.90;;;;;;;;;;4996930;28;20499;-64
2021/06/10 14:08:22;;;;;;;2.10;1.40;;;;;;;;;;5000859;28;20096;-64
2021/06/10 14:10:47;;;;;;;2.15;1.02;;;;;;;;;;5003945;28;20036;-64
2021/06/10 14:13:13;;;;;;;1.08;1.08;;;;;;;;;;5008432;28;20511;-63
2021/06/10 14:15:40;;;;;;;1.48;1.20;;;;;;;;;;5000380;28;20345;-63
2021/06/10 14:18:06;;;;;;;1.33;1.23;;;;;;;;;;5003756;28;20018;-63
2021/06/10 14:20:33;;;;;;;1.35;1.33;;;;;;;;;;5001739;28;20072;-63
2021/06/10 14:22:59;;;;;;;1.60;1.20;;;;;;;;;;5002833;28;20531;-64
2021/06/10 14:25:25;;;;;;;1.10;1.10;;;;;;;;;;4997702;28;20038;-63
2021/06/10 14:27:55;;;;;;;1.10;1.10;;;;;;;;;;4997400;28;20425;-63
2021/06/10 14:30:27;;;;;;;1.05;1.02;;;;;;;;;;4996503;28;20022;-63
2021/06/10 14:32:54;;;;;;;1.27;1.17;;;;;;;;;;5004324;28;20140;-63
2021/06/10 14:35:19;;;;;;;1.20;1.10;;;;;;;;;;5002933;28;20064;-64
2021/06/10 14:37:45;;;;;;;1.27;1.20;;;;;;;;;;4998608;28;20053;-64
2021/06/10 14:40:12;;;;;;;1.00;1.00;;;;;;;;;;4995809;28;20501;-64
2021/06/10 14:42:39;;;;;;;1.20;1.20;;;;;;;;;;4995163;28;20564;-64
2021/06/10 14:45:05;;;;;;;1.30;1.20;;;;;;;;;;4999634;28;20074;-63
2021/06/10 14:47:31;;;;;;;1.40;1.30;;;;;;;;;;5003807;28;20091;-64